Language selection

Features

My Weather Profile Weather Topics  | 

Gulf - Port au Port - northwestern half: Past 24 Hour Conditions

 

Banquereau - 44139

02:00 AM AST 05 December 2020Buoy position: 44.27N 57.08W
Disclaimer

This table is a summary of hourly weather conditions for the past 24 hours.
Please note that these observations might not always be representative of weather conditions over their associated marine area.

Date / Time
(AST)
Wind(knots) Wave height(m) Wave period(s) Pressure(kPa) Air tempC) Water tempC)
05 December 2020
2:00 SW 12 gust 13 2.0 10.0 102.2 11 10
1:00 SSW 13 gust 16 2.0 11.0 102.2 11 10
0:00 SSW 13 gust 16 1.9 11.0 102.2 11 10
04 December 2020
23:00 SSW 16 gust 17 2.0 11.0 102.3 11 11
22:00 SSW 13 gust 17 2.4 10.0 102.3 10 11
21:00 SSW 12 gust 13 2.3 11.0 102.4 10 11
20:00 SSW 10 gust 12 2.3 10.0 102.4 10 11
19:00 SSW 10 gust 12 2.2 11.0 102.4 9 11
18:00 SW 10 gust 12 2.4 11.0 102.4 9 11
17:00 WSW 10 gust 13 2.4 10.0 102.5 9 11
16:00 WSW 12 gust 13 2.3 11.0 102.4 9 11
15:00 WSW 10 gust 12 2.3 10.0 102.4 9 11
14:00 WSW 6 gust 8 2.1 9.0 102.4 9 11
13:00 W 8 gust 10 2.0 10.0 102.4 8 11
12:00 W 8 gust 10 2.1 9.0 102.4 8 11
11:00 WNW 8 gust 12 2.3 11.0 102.5 8 10
10:00 WNW 6 gust 10 2.3 10.0 102.5 7 10
9:00 WNW 8 gust 12 2.1 11.0 102.5 8 10
8:00 NW 8 gust 12 N/A 10.0 102.4 7 10
7:00 NW 10 gust 13 2.1 10.0 102.3 7 10
6:00 NW 10 gust 16 2.1 10.0 102.3 7 10
5:00 NW 12 gust 16 2.1 10.0 102.2 8 10
4:00 NW 10 gust 16 2.3 10.0 102.2 8 10
3:00 NNW 12 gust 16 2.1 10.0 102.2 8 10
2:00 NNW 12 gust 16 2.3 10.0 102.2 8 10

Zoom-in to make a selection

Map of Atlantic - Newfoundland marine weather areas Banquereau - 44139 East Chedabucto Bay - 44488 West Chedabucto Bay - 44489 Blanc-Sablon Airport Cap Whittle Chevery Natashquan Airport Heath Point Îles de la Madeleine Airport Miscou Island Eskasoni (First Nations) Grand Étang Ingonish Beach North Mountain St.Paul Island J.A. Douglas McCurdy Sydney Airport Charlottetown Airport East Point North Cape Argentia Bonavista Burgeo Cape Race Corner Brook Daniel's Harbour Englee Ferolle Point La Scie Port aux Basques Rocky Harbour Sagona Island St. Anthony Airport St. John's Int'l Airport St. Lawrence Stephenville Airport Twillingate Winterland Branch Hill Wreckhouse Grates Cove Pool's Island Marticot Island Long Pond Cartwright Airport Mary's Harbour
Legend:
buoy Buoy
land station Land Station

Atlantic - Newfoundland Area

Another Region

What we are doing

Features

Need to travel Alberta Highway 93?

Go prepared with Highway 93 forecasts. Highway regions are available in the Alberta text forecast bulletin between Lake Louise and Jasper. (Photo by: Natalie Anderson)

Date modified: